Time;durP1;ratioP1;P1;durP2;ratioP2;P2;SDS_P1;SDS_P2;PMS_P1;PMS_P2;Temp;Humidity;BMP_temperature;BMP_pressure;BME280_temperature;BME280_humidity;BME280_pressure;Samples;Min_cycle;Max_cycle;Signal;HPM_P1;HPM_P2
2022/03/19 00:00:03;;;;;;;7.40;2.83;;;20.90;46.70;;;;;;5081281;27;88571;-69
2022/03/19 00:02:31;;;;;;;6.17;2.77;;;20.90;46.60;;;;;;5080869;27;89238;-69
2022/03/19 00:05:00;;;;;;;4.00;2.63;;;20.90;46.60;;;;;;5080280;27;90558;-68
2022/03/19 00:07:28;;;;;;;7.03;2.93;;;20.90;46.60;;;;;;5083222;27;90046;-69
2022/03/19 00:09:57;;;;;;;6.77;2.50;;;20.90;46.60;;;;;;5083740;27;88361;-69
2022/03/19 00:12:24;;;;;;;6.03;3.07;;;20.80;46.60;;;;;;5081591;27;88672;-69
2022/03/19 00:14:53;;;;;;;4.57;2.27;;;20.90;46.60;;;;;;5063404;27;91858;-69
2022/03/19 00:17:20;;;;;;;6.47;2.83;;;20.90;46.60;;;;;;5063318;27;89204;-69
2022/03/19 00:19:48;;;;;;;4.77;2.30;;;20.80;46.60;;;;;;5082537;27;88520;-69
2022/03/19 00:22:18;;;;;;;6.47;2.13;;;20.80;46.50;;;;;;5083596;27;88444;-69
2022/03/19 00:24:46;;;;;;;4.27;2.70;;;20.80;46.50;;;;;;5074613;27;89714;-69
2022/03/19 00:27:14;;;;;;;10.17;2.57;;;20.80;46.50;;;;;;5078729;27;91247;-70
2022/03/19 00:29:42;;;;;;;4.60;2.90;;;20.80;46.50;;;;;;5069771;27;88812;-69
2022/03/19 00:32:10;;;;;;;4.90;2.50;;;20.80;46.50;;;;;;5063206;27;88535;-69
2022/03/19 00:34:38;;;;;;;4.40;2.50;;;20.80;46.50;;;;;;5074956;27;90695;-70
2022/03/19 00:37:06;;;;;;;6.57;2.47;;;20.80;46.50;;;;;;5082450;27;88912;-72
2022/03/19 00:39:35;;;;;;;3.17;1.87;;;20.70;46.40;;;;;;5083403;27;88384;-72
2022/03/19 00:42:03;;;;;;;5.00;2.50;;;20.70;46.40;;;;;;5082701;27;88536;-72
2022/03/19 00:44:31;;;;;;;3.87;2.13;;;20.70;46.40;;;;;;5068094;27;89284;-72
2022/03/19 00:46:59;;;;;;;5.10;2.83;;;20.70;46.40;;;;;;5061188;27;89082;-73
2022/03/19 00:49:28;;;;;;;3.70;2.67;;;20.70;46.40;;;;;;5062161;27;88419;-72
2022/03/19 00:51:56;;;;;;;3.60;2.13;;;20.70;46.40;;;;;;5062086;27;88605;-72
2022/03/19 00:54:24;;;;;;;5.30;2.17;;;20.70;46.40;;;;;;5068960;27;89776;-73
2022/03/19 00:56:53;;;;;;;4.30;2.03;;;20.70;46.40;;;;;;5082969;27;92758;-73
2022/03/19 00:59:21;;;;;;;4.43;2.10;;;20.70;46.30;;;;;;5082456;27;88476;-73
2022/03/19 01:01:49;;;;;;;4.47;1.77;;;20.70;46.30;;;;;;5082383;27;88637;-73
2022/03/19 01:04:18;;;;;;;2.13;1.43;;;20.70;46.30;;;;;;5080898;27;89599;-73
2022/03/19 01:06:46;;;;;;;4.17;1.87;;;20.70;46.30;;;;;;5082319;27;90053;-73
2022/03/19 01:09:14;;;;;;;2.67;1.83;;;20.70;46.20;;;;;;5083218;27;88413;-73
2022/03/19 01:11:42;;;;;;;2.50;1.70;;;20.60;46.10;;;;;;5083410;27;88364;-72
2022/03/19 01:14:11;;;;;;;2.50;2.03;;;20.70;46.20;;;;;;5075468;27;89664;-73
2022/03/19 01:16:39;;;;;;;3.47;1.80;;;20.70;46.20;;;;;;5062794;27;88368;-72
2022/03/19 01:19:09;;;;;;;2.80;1.83;;;20.60;46.10;;;;;;5063289;27;89129;-72
2022/03/19 01:21:39;;;;;;;5.70;1.60;;;20.60;46.10;;;;;;5063055;27;88451;-72
2022/03/19 01:24:07;;;;;;;2.90;1.73;;;20.60;46.10;;;;;;5071749;27;90533;-73
2022/03/19 01:26:36;;;;;;;3.13;1.97;;;20.60;46.10;;;;;;5082416;27;90097;-73
2022/03/19 01:29:04;;;;;;;4.03;1.73;;;20.60;46.10;;;;;;5082589;27;88427;-73
2022/03/19 01:31:34;;;;;;;4.20;2.17;;;20.60;46.00;;;;;;5082666;27;88581;-72
2022/03/19 01:34:02;;;;;;;3.10;1.40;;;20.60;46.00;;;;;;5074368;27;90340;-72
2022/03/19 01:36:30;;;;;;;4.63;2.27;;;20.60;46.00;;;;;;5061497;27;88828;-72
2022/03/19 01:38:58;;;;;;;4.63;1.90;;;20.60;46.00;;;;;;5062402;27;88344;-73
2022/03/19 01:41:26;;;;;;;3.60;1.63;;;20.50;46.00;;;;;;5061958;27;88733;-73
2022/03/19 01:43:54;;;;;;;3.33;1.60;;;20.50;46.00;;;;;;5066232;27;93584;-73
2022/03/19 01:46:22;;;;;;;2.47;1.67;;;20.50;46.00;;;;;;5082343;27;90675;-73
2022/03/19 01:48:52;;;;;;;1.67;1.13;;;20.50;46.00;;;;;;5082257;27;88384;-72
2022/03/19 01:51:20;;;;;;;2.80;1.63;;;20.50;46.00;;;;;;5082460;27;88428;-73
2022/03/19 01:53:49;;;;;;;2.57;1.60;;;20.50;46.00;;;;;;5074479;27;91944;-73
2022/03/19 01:56:17;;;;;;;4.60;1.73;;;20.50;46.00;;;;;;5062081;27;89145;-72
2022/03/19 01:58:45;;;;;;;2.93;1.57;;;20.50;46.00;;;;;;5062123;27;88444;-73
2022/03/19 02:01:13;;;;;;;3.27;1.50;;;20.50;46.00;;;;;;5061967;27;88550;-73
2022/03/19 02:03:41;;;;;;;2.70;1.67;;;20.50;46.00;;;;;;5064878;27;88933;-72
2022/03/19 02:06:12;;;;;;;3.63;2.07;;;20.50;46.00;;;;;;5081398;27;91085;-73
2022/03/19 02:08:42;;;;;;;3.53;1.57;;;20.50;46.00;;;;;;5082753;27;88287;-72
2022/03/19 02:11:11;;;;;;;2.07;1.70;;;20.50;46.00;;;;;;5082287;27;88619;-73
2022/03/19 02:13:39;;;;;;;3.00;1.80;;;20.50;46.00;;;;;;5077557;27;89566;-72
2022/03/19 02:16:08;;;;;;;2.23;1.77;;;20.40;45.90;;;;;;5081201;27;90990;-72
2022/03/19 02:18:36;;;;;;;3.27;1.73;;;20.40;45.90;;;;;;5082397;27;88350;-72
2022/03/19 02:21:04;;;;;;;4.97;1.63;;;20.40;45.90;;;;;;5082217;27;88534;-72
2022/03/19 02:26:19;;;;;;;3.10;1.33;;;20.40;45.90;;;;;;5061309;27;89405;-73
2022/03/19 02:28:47;;;;;;;3.90;1.33;;;20.40;45.80;;;;;;5061022;27;88256;-73
2022/03/19 02:31:15;;;;;;;2.17;1.20;;;20.40;45.80;;;;;;5061195;27;88387;-72
2022/03/19 02:33:43;;;;;;;2.70;1.60;;;20.40;45.80;;;;;;5078735;27;90607;-72
2022/03/19 02:36:14;;;;;;;1.80;1.33;;;20.40;45.80;;;;;;5081948;27;89535;-72
2022/03/19 02:38:45;;;;;;;2.17;1.33;;;20.40;45.80;;;;;;5082600;27;88324;-72
2022/03/19 02:41:13;;;;;;;2.40;1.23;;;20.40;45.80;;;;;;5081810;27;88650;-73
2022/03/19 02:43:42;;;;;;;2.30;1.40;;;20.40;45.80;;;;;;5062428;27;90638;-73
2022/03/19 02:46:10;;;;;;;2.17;1.53;;;20.40;45.70;;;;;;5062317;27;89706;-73
2022/03/19 02:48:38;;;;;;;1.97;1.07;;;20.40;45.70;;;;;;5061270;27;88387;-72
2022/03/19 02:51:08;;;;;;;1.43;1.07;;;20.40;45.70;;;;;;5061034;27;88637;-73
2022/03/19 02:53:36;;;;;;;2.60;1.57;;;20.40;45.70;;;;;;5079377;27;90708;-73
2022/03/19 02:56:06;;;;;;;1.57;1.20;;;20.30;45.70;;;;;;5081178;27;89996;-73
2022/03/19 02:58:34;;;;;;;2.27;1.40;;;20.30;45.70;;;;;;5081601;27;88447;-72
2022/03/19 03:01:03;;;;;;;2.50;1.20;;;20.30;45.70;;;;;;5081851;27;88499;-72
2022/03/19 03:03:31;;;;;;;1.83;1.53;;;20.30;45.70;;;;;;5072173;27;90724;-73
2022/03/19 03:05:59;;;;;;;2.00;1.13;;;20.30;45.70;;;;;;5081411;27;89989;-73
2022/03/19 03:08:27;;;;;;;1.37;1.23;;;20.30;45.60;;;;;;5081562;27;88535;-73
2022/03/19 03:10:55;;;;;;;2.10;1.10;;;20.30;45.70;;;;;;5081205;27;88497;-73
2022/03/19 03:13:25;;;;;;;1.40;1.30;;;20.30;45.60;;;;;;5061916;27;91060;-73
2022/03/19 03:15:53;;;;;;;3.97;1.67;;;20.20;45.60;;;;;;5060729;27;90407;-73
2022/03/19 03:18:21;;;;;;;2.30;1.27;;;20.30;46.30;;;;;;5061122;27;88408;-73
2022/03/19 03:20:49;;;;;;;1.70;1.27;;;20.20;45.60;;;;;;5061680;27;88202;-73
2022/03/19 03:23:17;;;;;;;3.67;1.97;;;20.20;45.60;;;;;;5078193;27;89621;-72
2022/03/19 03:25:45;;;;;;;3.17;1.87;;;20.20;45.60;;;;;;5082745;27;89027;-73
2022/03/19 03:28:13;;;;;;;1.10;1.00;;;20.20;45.60;;;;;;5085266;27;88297;-73
2022/03/19 03:30:42;;;;;;;2.50;1.57;;;20.20;45.60;;;;;;5085136;27;88582;-73
2022/03/19 03:33:10;;;;;;;3.07;1.30;;;20.20;45.60;;;;;;5065795;27;90698;-73
2022/03/19 03:35:38;;;;;;;1.67;1.27;;;20.20;45.60;;;;;;5063759;27;90213;-73
2022/03/19 03:38:07;;;;;;;3.60;1.30;;;20.20;45.60;;;;;;5064265;27;89083;-72
2022/03/19 03:40:35;;;;;;;1.60;0.97;;;20.20;45.60;;;;;;5065147;27;88638;-72
2022/03/19 03:43:03;;;;;;;3.40;1.47;;;20.20;45.60;;;;;;5064345;27;90110;-73
2022/03/19 03:45:32;;;;;;;2.33;1.43;;;20.20;45.60;;;;;;5064207;27;89576;-73
2022/03/19 03:48:01;;;;;;;2.93;1.23;;;20.20;45.60;;;;;;5064810;27;88429;-71
2022/03/19 03:50:29;;;;;;;1.83;1.30;;;20.10;45.50;;;;;;5063831;27;88677;-73
2022/03/19 03:52:57;;;;;;;1.93;1.10;;;20.20;45.60;;;;;;5079498;27;93448;-73
2022/03/19 03:55:26;;;;;;;1.50;1.20;;;20.10;45.50;;;;;;5083798;27;89346;-67
2022/03/19 03:57:54;;;;;;;2.20;1.20;;;20.10;45.50;;;;;;5084163;27;88353;-71
2022/03/19 04:00:27;;;;;;;2.40;1.63;;;20.10;45.40;;;;;;5084408;27;88377;-71
2022/03/19 04:02:55;;;;;;;3.23;1.23;;;20.10;45.40;;;;;;5067201;27;89948;-71
2022/03/19 04:05:25;;;;;;;2.53;1.67;;;20.10;45.40;;;;;;5062681;27;89970;-71
2022/03/19 04:07:54;;;;;;;1.17;1.07;;;20.10;45.40;;;;;;5063728;27;88529;-71
2022/03/19 04:10:22;;;;;;;2.03;1.40;;;20.10;45.40;;;;;;5046109;27;88656;-71
2022/03/19 04:12:50;;;;;;;2.70;1.40;;;20.10;46.10;;;;;;5078855;27;92805;-67
2022/03/19 04:15:19;;;;;;;3.43;1.50;;;20.10;45.40;;;;;;5085288;27;90044;-66
2022/03/19 04:17:47;;;;;;;2.50;1.10;;;20.10;45.40;;;;;;5085054;27;88587;-67
2022/03/19 04:20:16;;;;;;;4.40;1.70;;;20.00;45.30;;;;;;5085643;27;88561;-73
2022/03/19 04:22:47;;;;;;;1.97;1.27;;;20.10;45.40;;;;;;5081534;27;89980;-71
2022/03/19 04:25:16;;;;;;;1.93;1.33;;;20.10;45.40;;;;;;5085114;27;90137;-69
2022/03/19 04:27:45;;;;;;;1.43;1.27;;;20.00;45.30;;;;;;5084070;27;88385;-67
2022/03/19 04:30:14;;;;;;;0.87;0.87;;;20.00;45.30;;;;;;5082910;27;88654;-68
2022/03/19 04:32:42;;;;;;;1.93;1.40;;;20.00;46.00;;;;;;5080946;27;94152;-68
2022/03/19 04:37:59;;;;;;;2.40;1.40;;;20.00;45.30;;;;;;5081257;27;88945;-67
2022/03/19 04:40:27;;;;;;;2.33;1.33;;;20.00;45.30;;;;;;5081909;27;88837;-68
2022/03/19 04:42:55;;;;;;;1.27;1.17;;;20.00;45.30;;;;;;5079779;27;91536;-67
2022/03/19 04:45:24;;;;;;;1.80;1.20;;;20.00;45.30;;;;;;5081872;27;92062;-67
2022/03/19 04:47:52;;;;;;;1.67;1.17;;;19.90;45.80;;;;;;5082293;27;89324;-68
2022/03/19 04:50:20;;;;;;;2.43;1.47;;;19.90;45.20;;;;;;5082444;27;88328;-67
2022/03/19 04:52:48;;;;;;;2.20;0.93;;;19.90;45.20;;;;;;5063808;27;90108;-68
2022/03/19 04:55:17;;;;;;;1.30;1.00;;;19.90;45.20;;;;;;5061125;27;90141;-68
2022/03/19 04:57:46;;;;;;;3.27;1.17;;;19.90;45.20;;;;;;5061189;27;88845;-68
2022/03/19 05:00:16;;;;;;;1.37;0.60;;;19.90;45.20;;;;;;5061324;27;88499;-67
2022/03/19 05:02:44;;;;;;;1.03;0.93;;;19.90;45.80;;;;;;5078014;27;90757;-67
2022/03/19 05:05:12;;;;;;;2.63;0.80;;;19.90;45.20;;;;;;5082011;27;88715;-67
2022/03/19 05:07:40;;;;;;;1.80;1.10;;;19.90;45.20;;;;;;5081330;27;88955;-67
2022/03/19 05:12:56;;;;;;;1.57;0.90;;;19.90;45.20;;;;;;5061359;27;90897;-67
2022/03/19 05:15:26;;;;;;;3.63;1.40;;;19.90;45.20;;;;;;5061464;27;89960;-68
2022/03/19 05:17:54;;;;;;;2.73;1.40;;;19.90;45.20;;;;;;5061405;27;91469;-68
2022/03/19 05:20:22;;;;;;;1.60;1.13;;;19.90;45.20;;;;;;5061257;27;88601;-68
2022/03/19 05:22:50;;;;;;;4.53;1.30;;;19.90;45.20;;;;;;5079958;27;91017;-69
2022/03/19 05:25:18;;;;;;;2.83;1.40;;;19.90;45.20;;;;;;5081591;27;93413;-69
2022/03/19 05:27:46;;;;;;;3.23;1.13;;;19.90;45.20;;;;;;5081912;27;91087;-68
2022/03/19 05:30:22;;;;;;;1.07;0.90;;;19.90;45.10;;;;;;5081417;27;88432;-67
2022/03/19 05:32:50;;;;;;;0.80;0.73;;;19.90;45.10;;;;;;5060854;27;89541;-69
2022/03/19 05:35:18;;;;;;;1.83;1.10;;;19.90;45.10;;;;;;5060604;27;90296;-67
2022/03/19 05:37:47;;;;;;;0.83;0.80;;;19.80;45.00;;;;;;5061293;27;89742;-67
2022/03/19 05:40:15;;;;;;;1.13;0.87;;;19.80;45.00;;;;;;5073501;27;88448;-68
2022/03/19 05:42:43;;;;;;;1.10;0.93;;;19.80;45.00;;;;;;5060797;27;91058;-67
2022/03/19 05:45:13;;;;;;;1.70;0.90;;;19.80;45.00;;;;;;5060601;27;90023;-67
2022/03/19 05:47:42;;;;;;;1.20;1.00;;;19.80;45.00;;;;;;5061248;27;88460;-69
2022/03/19 05:50:10;;;;;;;1.57;0.97;;;19.80;45.00;;;;;;5061623;27;88436;-69
2022/03/19 05:52:39;;;;;;;1.63;1.03;;;19.80;45.00;;;;;;5080658;27;90767;-69
2022/03/19 05:55:08;;;;;;;2.40;0.90;;;19.80;45.00;;;;;;5080849;27;89973;-69
2022/03/19 05:57:36;;;;;;;2.33;1.10;;;19.80;45.00;;;;;;5079974;27;88467;-68
2022/03/19 06:00:08;;;;;;;2.00;0.87;;;19.80;45.00;;;;;;5079779;27;89348;-69
2022/03/19 06:02:39;;;;;;;2.10;0.77;;;19.80;45.00;;;;;;5060963;27;91145;-69
2022/03/19 06:05:10;;;;;;;1.77;0.80;;;19.80;45.00;;;;;;5076209;27;89692;-67
2022/03/19 06:07:38;;;;;;;2.10;0.90;;;19.80;45.00;;;;;;5080896;27;90745;-70
2022/03/19 06:10:08;;;;;;;1.10;0.87;;;19.80;45.00;;;;;;5080735;27;88418;-71
2022/03/19 06:12:37;;;;;;;4.63;1.20;;;19.70;44.90;;;;;;5059835;27;90130;-67
2022/03/19 06:15:05;;;;;;;1.30;1.10;;;19.80;44.90;;;;;;5060221;27;91446;-66
2022/03/19 06:17:33;;;;;;;2.80;0.67;;;19.80;44.90;;;;;;5060780;27;90531;-65
2022/03/19 06:20:01;;;;;;;3.37;1.37;;;19.80;44.90;;;;;;5060946;27;88411;-67
2022/03/19 06:22:31;;;;;;;1.00;0.83;;;19.80;44.90;;;;;;5060317;27;91071;-69
2022/03/19 06:24:59;;;;;;;1.83;1.03;;;19.80;44.90;;;;;;5059307;27;91720;-68
2022/03/19 06:27:27;;;;;;;2.20;1.20;;;19.90;45.10;;;;;;5064830;27;88534;-70
2022/03/19 06:29:55;;;;;;;7.27;1.07;;;19.90;45.20;;;;;;5077708;27;88627;-67
2022/03/19 06:32:23;;;;;;;3.27;0.90;;;19.90;45.30;;;;;;5059730;27;90608;-68
2022/03/19 06:34:51;;;;;;;2.97;1.07;;;20.00;45.40;;;;;;5076417;27;89997;-68
2022/03/19 06:37:21;;;;;;;3.20;1.23;;;20.00;45.50;;;;;;5079706;27;91937;-67
2022/03/19 06:39:53;;;;;;;1.00;0.80;;;20.10;45.50;;;;;;5080484;27;88261;-68
2022/03/19 06:42:21;;;;;;;3.83;1.23;;;20.10;45.60;;;;;;5059396;27;88492;-67
2022/03/19 06:44:49;;;;;;;1.00;1.00;;;20.10;45.60;;;;;;5059658;27;90101;-68
2022/03/19 06:47:17;;;;;;;2.17;1.10;;;20.10;45.60;;;;;;5062389;27;88396;-67
2022/03/19 06:49:45;;;;;;;3.30;1.07;;;20.10;45.60;;;;;;5068237;27;88602;-66
2022/03/19 06:52:13;;;;;;;2.67;1.10;;;20.10;45.70;;;;;;5073706;27;90501;-66
2022/03/19 06:54:41;;;;;;;1.43;1.07;;;20.10;45.70;;;;;;5059907;27;90432;-66
2022/03/19 06:57:11;;;;;;;1.97;1.40;;;20.10;45.70;;;;;;5059920;27;88533;-66
2022/03/19 06:59:38;;;;;;;1.70;0.93;;;20.10;45.70;;;;;;5059764;27;88368;-66
2022/03/19 07:02:06;;;;;;;2.60;1.20;;;20.10;45.70;;;;;;5059828;27;91609;-65
2022/03/19 07:04:35;;;;;;;2.07;1.30;;;20.10;45.70;;;;;;5067038;27;89967;-65
2022/03/19 07:07:05;;;;;;;2.60;1.20;;;20.10;45.80;;;;;;5080558;27;88533;-66
2022/03/19 07:09:33;;;;;;;1.83;1.27;;;20.10;45.80;;;;;;5079733;27;88511;-66
2022/03/19 07:12:01;;;;;;;3.63;1.13;;;20.10;45.80;;;;;;5061870;27;92271;-66
2022/03/19 07:14:30;;;;;;;2.73;1.13;;;20.10;45.80;;;;;;5079301;27;89169;-66
2022/03/19 07:16:59;;;;;;;2.20;1.17;;;20.10;45.80;;;;;;5072058;27;88619;-66
2022/03/19 07:19:27;;;;;;;4.53;0.97;;;20.10;45.90;;;;;;5073828;27;89685;-66
2022/03/19 07:21:55;;;;;;;1.73;1.30;;;20.10;45.90;;;;;;5070798;27;91583;-66
2022/03/19 07:24:23;;;;;;;3.70;1.03;;;20.10;45.90;;;;;;5075659;27;90172;-66
2022/03/19 07:26:52;;;;;;;4.57;1.17;;;20.10;45.90;;;;;;5059738;27;91701;-65
2022/03/19 07:29:20;;;;;;;1.50;0.70;;;20.00;45.80;;;;;;5059437;27;88561;-66
2022/03/19 07:31:52;;;;;;;2.07;1.20;;;20.00;45.90;;;;;;5059522;27;89550;-66
2022/03/19 07:34:21;;;;;;;2.63;0.87;;;20.10;46.00;;;;;;5058791;27;89446;-69
2022/03/19 07:36:49;;;;;;;0.70;0.70;;;20.10;46.00;;;;;;5058682;27;89253;-67
2022/03/19 07:39:17;;;;;;;2.50;0.90;;;20.00;46.00;;;;;;5058922;27;88405;-68
2022/03/19 07:41:48;;;;;;;1.70;1.10;;;20.10;46.10;;;;;;5068006;27;91540;-68
2022/03/19 07:44:16;;;;;;;3.30;1.10;;;20.10;46.20;;;;;;5079042;27;89110;-67
2022/03/19 07:46:45;;;;;;;4.20;1.40;;;20.10;46.20;;;;;;5079934;27;88360;-67
2022/03/19 07:49:14;;;;;;;4.07;1.23;;;20.10;46.30;;;;;;5073972;27;88542;-67
2022/03/19 07:51:42;;;;;;;4.53;1.30;;;20.10;46.40;;;;;;5067141;27;89526;-67
2022/03/19 07:54:10;;;;;;;4.10;1.27;;;20.10;46.50;;;;;;5065940;27;93250;-67
2022/03/19 07:56:38;;;;;;;5.50;1.20;;;20.10;46.50;;;;;;5070482;27;91640;-67
2022/03/19 07:59:06;;;;;;;2.83;1.10;;;20.20;46.70;;;;;;5059041;27;88790;-67
2022/03/19 08:01:34;;;;;;;2.47;0.97;;;20.20;46.80;;;;;;5057903;27;90096;-68
2022/03/19 08:04:08;;;;;;;2.63;1.13;;;20.20;46.90;;;;;;5074672;27;88854;-68
2022/03/19 08:06:37;;;;;;;4.77;1.33;;;20.20;46.90;;;;;;5071162;27;91079;-66
2022/03/19 08:09:06;;;;;;;2.63;1.10;;;20.30;47.00;;;;;;5061460;27;88454;-67
2022/03/19 08:11:34;;;;;;;2.10;0.90;;;20.30;47.10;;;;;;5078822;27;90979;-68
2022/03/19 08:14:02;;;;;;;1.20;1.07;;;20.30;47.10;;;;;;5064509;27;91737;-67
2022/03/19 08:16:30;;;;;;;2.43;0.97;;;20.30;47.20;;;;;;5062312;27;90737;-68
2022/03/19 08:18:58;;;;;;;1.40;0.73;;;20.30;47.30;;;;;;5070291;27;88522;-68
2022/03/19 08:21:26;;;;;;;2.47;1.00;;;20.30;47.30;;;;;;5062650;27;92871;-69
2022/03/19 08:23:56;;;;;;;1.70;1.40;;;20.30;47.30;;;;;;5070583;27;89214;-68
2022/03/19 08:26:24;;;;;;;4.40;1.47;;;20.30;47.40;;;;;;5072615;27;88746;-68
2022/03/19 08:28:52;;;;;;;1.83;1.10;;;20.30;47.40;;;;;;5062338;27;88662;-68
2022/03/19 08:31:20;;;;;;;6.27;1.80;;;20.20;48.00;;;;;;5068977;27;92049;-69
2022/03/19 08:33:48;;;;;;;1.97;0.80;;;20.20;47.40;;;;;;5065745;27;88778;-68
2022/03/19 08:36:16;;;;;;;1.83;0.97;;;20.20;47.40;;;;;;5081241;27;89753;-68
2022/03/19 08:41:31;;;;;;;1.37;0.93;;;20.20;47.30;;;;;;5071244;27;90634;-68
2022/03/19 08:43:59;;;;;;;1.50;0.90;;;20.20;47.30;;;;;;5075161;27;89163;-68
2022/03/19 08:46:27;;;;;;;2.40;1.00;;;20.20;47.30;;;;;;5070855;27;92192;-68
2022/03/19 08:48:55;;;;;;;1.23;1.10;;;20.20;47.30;;;;;;5075073;27;89944;-68
2022/03/19 08:51:42;;;;;;;1.70;0.87;;;20.10;47.20;;;;;;5075549;27;89641;-68
2022/03/19 08:54:10;;;;;;;1.57;1.10;;;20.10;47.20;;;;;;5061421;27;90372;-68
2022/03/19 08:56:40;;;;;;;1.07;0.90;;;20.10;47.10;;;;;;5065184;27;90287;-68
2022/03/19 08:59:09;;;;;;;2.00;0.80;;;20.10;47.10;;;;;;5068490;27;88698;-68
2022/03/19 09:01:37;;;;;;;2.23;1.10;;;20.10;47.10;;;;;;5066077;27;90165;-68
2022/03/19 09:04:06;;;;;;;2.30;0.93;;;20.10;47.10;;;;;;5071352;27;89908;-68
2022/03/19 09:06:34;;;;;;;3.13;1.30;;;20.10;47.00;;;;;;5059605;27;88321;-68
2022/03/19 09:09:03;;;;;;;3.13;1.00;;;20.10;47.00;;;;;;5070936;27;89059;-68
2022/03/19 09:11:31;;;;;;;2.43;1.13;;;20.10;47.00;;;;;;5071667;27;90653;-68
2022/03/19 09:14:01;;;;;;;3.43;1.33;;;20.10;46.90;;;;;;5072064;27;89606;-71
2022/03/19 09:16:29;;;;;;;1.80;0.90;;;20.10;47.00;;;;;;5073010;27;88963;-72
2022/03/19 09:18:57;;;;;;;1.63;0.90;;;20.10;46.90;;;;;;5072035;27;88878;-71
2022/03/19 09:21:25;;;;;;;1.77;0.90;;;20.10;46.90;;;;;;5069004;27;90716;-71
2022/03/19 09:23:53;;;;;;;3.13;1.10;;;20.10;46.90;;;;;;5071310;27;90074;-71
2022/03/19 09:26:21;;;;;;;5.70;1.17;;;20.10;46.70;;;;;;5079388;27;90295;-72
2022/03/19 09:28:49;;;;;;;2.30;0.53;;;20.10;46.70;;;;;;5085437;27;88643;-72
2022/03/19 09:31:18;;;;;;;0.77;0.70;;;20.20;46.70;;;;;;5074171;27;91361;-71
2022/03/19 09:33:46;;;;;;;3.80;1.10;;;20.20;46.70;;;;;;5073354;27;92488;-70
2022/03/19 09:36:14;;;;;;;1.33;1.00;;;20.20;46.60;;;;;;5080398;27;90945;-70
2022/03/19 09:38:42;;;;;;;1.87;0.63;;;20.20;46.50;;;;;;5075029;27;88622;-70
2022/03/19 09:41:10;;;;;;;2.10;0.80;;;20.10;46.40;;;;;;5080165;27;89367;-72
2022/03/19 09:43:38;;;;;;;3.90;0.80;;;20.20;46.40;;;;;;5076950;27;90818;-70
2022/03/19 09:46:07;;;;;;;2.83;0.93;;;20.10;46.30;;;;;;5077684;27;91357;-69
2022/03/19 09:48:37;;;;;;;0.97;0.90;;;20.10;46.20;;;;;;5076720;27;88520;-70
2022/03/19 09:51:07;;;;;;;2.03;1.00;;;20.10;46.10;;;;;;5066103;27;89949;-72
2022/03/19 09:53:35;;;;;;;2.70;0.93;;;20.10;46.10;;;;;;5064879;27;89977;-71
2022/03/19 09:56:24;;;;;;;1.53;0.77;;;20.10;46.00;;;;;;5070630;27;88625;-72
2022/03/19 09:58:52;;;;;;;17.53;1.07;;;20.10;46.00;;;;;;5077032;27;88610;-69
2022/03/19 10:01:25;;;;;;;1.43;0.90;;;20.10;45.90;;;;;;5080008;27;93463;-70
2022/03/19 10:04:00;;;;;;;1.20;0.60;;;20.10;45.80;;;;;;5080378;27;91334;-69
2022/03/19 10:09:18;;;;;;;3.50;1.00;;;20.10;45.70;;;;;;5065972;27;88549;-71
2022/03/19 10:11:48;;;;;;;2.63;0.90;;;20.10;45.70;;;;;;5068280;27;89239;-71
2022/03/19 10:14:20;;;;;;;1.60;0.77;;;20.10;45.60;;;;;;5080658;27;90013;-71
2022/03/19 10:16:52;;;;;;;2.77;0.80;;;20.10;45.60;;;;;;5080815;27;88422;-71
2022/03/19 10:19:21;;;;;;;1.23;0.63;;;20.10;45.50;;;;;;5078791;27;88551;-71
2022/03/19 10:21:50;;;;;;;1.40;0.90;;;20.10;45.50;;;;;;5073011;27;90661;-71
2022/03/19 10:24:23;;;;;;;2.83;0.83;;;20.10;45.40;;;;;;5059355;27;90005;-70
2022/03/19 10:26:52;;;;;;;2.20;0.90;;;20.10;45.40;;;;;;5059503;27;88445;-72
2022/03/19 10:29:28;;;;;;;3.03;0.90;;;20.10;45.30;;;;;;5063814;27;88528;-70
2022/03/19 10:32:04;;;;;;;3.10;0.90;;;20.10;45.30;;;;;;5076578;27;93165;-71
2022/03/19 10:34:34;;;;;;;2.10;0.87;;;20.10;45.20;;;;;;5077817;27;90042;-70
2022/03/19 10:37:02;;;;;;;4.50;0.87;;;20.10;45.20;;;;;;5078866;27;88641;-70
2022/03/19 10:39:31;;;;;;;0.90;0.40;;;20.20;45.20;;;;;;5077236;27;88624;-70
2022/03/19 10:41:59;;;;;;;1.30;0.83;;;20.20;45.10;;;;;;5079091;27;90725;-69
2022/03/19 10:44:28;;;;;;;1.40;0.63;;;20.20;45.10;;;;;;5080216;27;91296;-72
2022/03/19 10:46:57;;;;;;;2.37;0.90;;;20.20;45.00;;;;;;5079953;27;91871;-72
2022/03/19 10:49:26;;;;;;;1.10;0.50;;;20.20;44.90;;;;;;5067302;27;88721;-70
2022/03/19 10:51:56;;;;;;;1.50;0.70;;;20.20;44.90;;;;;;5058478;27;90152;-70
2022/03/19 10:54:24;;;;;;;2.23;1.00;;;20.20;44.80;;;;;;5059243;27;88630;-73
2022/03/19 10:56:53;;;;;;;1.53;0.87;;;20.20;44.70;;;;;;5059518;27;88457;-70
2022/03/19 10:59:24;;;;;;;6.97;0.77;;;20.20;44.60;;;;;;5073456;27;88500;-70
2022/03/19 11:01:53;;;;;;;1.27;0.60;;;20.20;44.50;;;;;;5079039;27;90466;-72
2022/03/19 11:04:21;;;;;;;0.53;0.50;;;20.20;44.40;;;;;;5079600;27;88548;-72
2022/03/19 11:06:52;;;;;;;5.13;0.80;;;20.20;44.30;;;;;;5079944;27;88270;-71
2022/03/19 11:09:23;;;;;;;0.90;0.57;;;20.20;44.30;;;;;;5076571;27;88890;-71
2022/03/19 11:11:55;;;;;;;0.60;0.60;;;20.20;44.20;;;;;;5067210;27;90636;-70
2022/03/19 11:14:25;;;;;;;3.40;0.53;;;20.20;44.10;;;;;;5059686;27;89383;-72
2022/03/19 11:19:45;;;;;;;6.43;0.83;;;20.20;44.00;;;;;;5059078;27;88620;-71
2022/03/19 11:22:15;;;;;;;2.50;0.93;;;20.20;44.00;;;;;;5059119;27;89590;-71
2022/03/19 11:24:49;;;;;;;0.50;0.50;;;20.20;44.60;;;;;;5058460;27;89959;-70
2022/03/19 11:27:17;;;;;;;1.77;1.00;;;20.20;43.90;;;;;;5059141;27;90267;-71
2022/03/19 11:29:45;;;;;;;1.87;0.60;;;20.30;43.90;;;;;;5078670;27;90669;-71
2022/03/19 11:32:22;;;;;;;1.37;0.57;;;20.30;43.80;;;;;;5065046;27;93899;-70
2022/03/19 11:34:51;;;;;;;3.47;0.90;;;20.20;43.80;;;;;;5071218;27;89164;-70
2022/03/19 11:37:19;;;;;;;1.13;0.70;;;20.30;44.50;;;;;;5057725;27;91031;-69
2022/03/19 11:40:05;;;;;;;1.17;0.80;;;20.30;43.80;;;;;;5076545;27;88698;-68
2022/03/19 11:42:33;;;;;;;1.03;0.43;;;20.20;43.80;;;;;;5079456;27;89423;-69
2022/03/19 11:45:09;;;;;;;3.10;0.87;;;20.30;43.80;;;;;;5072911;27;92195;-69
2022/03/19 11:47:38;;;;;;;2.57;0.50;;;20.30;43.80;;;;;;5062256;27;88573;-69
2022/03/19 11:50:18;;;;;;;1.43;0.73;;;20.30;43.80;;;;;;5062759;27;88367;-69
2022/03/19 11:53:03;;;;;;;2.10;0.90;;;20.30;43.80;;;;;;5062188;27;89606;-69
2022/03/19 11:55:39;;;;;;;1.67;0.83;;;20.30;43.80;;;;;;5062183;27;90110;-70
2022/03/19 11:58:14;;;;;;;4.27;0.67;;;20.30;43.80;;;;;;5061915;27;88638;-70
2022/03/19 12:00:42;;;;;;;1.00;0.50;;;20.30;43.80;;;;;;5062335;27;88775;-69
2022/03/19 12:03:15;;;;;;;1.30;0.53;;;20.30;43.80;;;;;;5062726;27;91205;-69
2022/03/19 12:05:44;;;;;;;0.60;0.53;;;20.30;43.80;;;;;;5073089;27;91457;-70
2022/03/19 12:08:13;;;;;;;2.20;0.73;;;20.30;43.80;;;;;;5082954;27;92261;-68
2022/03/19 12:10:57;;;;;;;3.40;0.60;;;20.30;43.80;;;;;;5083038;27;88539;-68
2022/03/19 12:13:39;;;;;;;3.00;0.90;;;20.30;43.80;;;;;;5082650;27;90619;-69
2022/03/19 12:16:08;;;;;;;3.23;0.60;;;20.30;43.80;;;;;;5065383;27;90034;-69
2022/03/19 12:18:48;;;;;;;1.00;0.53;;;20.40;43.80;;;;;;5062054;27;88697;-68
2022/03/19 12:21:18;;;;;;;1.53;0.50;;;20.40;43.80;;;;;;5062367;27;88491;-68
2022/03/19 12:24:02;;;;;;;1.37;0.57;;;20.40;44.40;;;;;;5061884;27;91070;-68
2022/03/19 12:26:37;;;;;;;1.77;0.50;;;20.40;43.80;;;;;;5064885;27;89028;-71
2022/03/19 12:29:06;;;;;;;1.03;0.70;;;20.40;43.80;;;;;;5082567;27;88341;-68
2022/03/19 12:31:36;;;;;;;1.30;0.60;;;20.50;43.70;;;;;;5082227;27;88679;-69
2022/03/19 12:34:04;;;;;;;4.20;0.97;;;20.40;43.70;;;;;;5081975;27;90666;-68
2022/03/19 12:36:32;;;;;;;0.50;0.50;;;20.40;43.60;;;;;;5081585;27;89052;-69
2022/03/19 12:39:01;;;;;;;0.73;0.60;;;20.50;43.70;;;;;;5082468;27;89666;-68
2022/03/19 12:41:30;;;;;;;1.07;0.70;;;20.50;43.60;;;;;;5081566;27;88654;-69
2022/03/19 12:44:24;;;;;;;2.80;1.03;;;20.50;43.60;;;;;;5079710;27;89180;-70
2022/03/19 12:46:57;;;;;;;2.13;0.60;;;20.50;43.60;;;;;;5044604;27;91220;-71
2022/03/19 12:49:25;;;;;;;0.87;0.60;;;20.40;43.50;;;;;;5061967;27;89010;-70
2022/03/19 12:51:54;;;;;;;0.57;0.40;;;20.50;43.60;;;;;;5061168;27;88608;-68
2022/03/19 12:54:24;;;;;;;0.50;0.50;;;20.50;43.60;;;;;;5060902;27;89694;-69
2022/03/19 12:56:53;;;;;;;0.93;0.60;;;20.50;43.60;;;;;;5061218;27;90672;-69
2022/03/19 12:59:23;;;;;;;0.50;0.40;;;20.50;43.50;;;;;;5061586;27;88772;-69
2022/03/19 13:01:51;;;;;;;0.73;0.60;;;20.50;43.50;;;;;;5061390;27;88721;-69
2022/03/19 13:04:21;;;;;;;0.40;0.30;;;20.50;43.50;;;;;;5061418;27;93152;-69
2022/03/19 13:06:49;;;;;;;1.80;0.80;;;20.50;43.50;;;;;;5072428;27;90115;-70
2022/03/19 13:09:28;;;;;;;0.83;0.50;;;20.60;43.50;;;;;;5082170;27;88353;-70
2022/03/19 13:11:57;;;;;;;1.53;0.53;;;20.60;43.50;;;;;;5081235;27;88591;-70
2022/03/19 13:14:26;;;;;;;1.03;0.50;;;20.60;43.50;;;;;;5081461;27;92375;-70